createdAt,value
2023-10-05T00:00:02.007Z,73.37534712007464
2023-10-05T00:15:01.603Z,74.1229136487883
2023-10-05T00:30:02.258Z,74.61312082174578
2023-10-05T00:45:01.876Z,74.63431549122842
2023-10-05T01:00:02.490Z,75.33279257821413
2023-10-05T01:15:02.164Z,75.10763964345695
2023-10-05T01:30:01.890Z,75.46314093314905
2023-10-05T01:45:02.453Z,75.74592700834586
2023-10-05T02:00:02.516Z,75.97608655436173
2023-10-05T02:15:02.094Z,76.07079461897861
2023-10-05T02:30:01.795Z,76.50728885263447
2023-10-05T02:45:02.472Z,76.90935116825176
2023-10-05T03:00:02.127Z,77.21636662738153
2023-10-05T03:15:01.786Z,77.43013375786855
2023-10-05T03:30:02.502Z,77.5594344224866
2023-10-05T03:45:02.219Z,77.56821626163939
2023-10-05T04:00:02.281Z,77.38006797624061
2023-10-05T04:15:02.062Z,77.11016157193708
2023-10-05T04:30:02.195Z,77.02141205308334
2023-10-05T04:45:01.787Z,77.14305669973744
2023-10-05T05:00:02.409Z,77.38376560832717
2023-10-05T05:15:01.991Z,78.09871587123452
2023-10-05T05:30:01.645Z,78.53100340815622
2023-10-05T05:45:02.287Z,78.49345808029888
2023-10-05T06:00:01.971Z,78.24912411922732
2023-10-05T06:15:01.778Z,77.9539336683902
2023-10-05T06:30:02.459Z,78.58172420823111
2023-10-05T06:45:02.094Z,78.18478132999765
2023-10-05T07:00:01.797Z,77.9652563960448
2023-10-05T07:15:02.481Z,78.28096899834608
2023-10-05T07:30:02.150Z,78.30572274265249
2023-10-05T07:45:01.780Z,78.58925801948479
2023-10-05T08:00:02.430Z,78.27600834628609
2023-10-05T08:15:02.060Z,78.18293365869309
2023-10-05T08:30:01.786Z,78.01263831006936
2023-10-05T08:45:02.467Z,77.6420403772394
2023-10-05T09:00:02.122Z,77.5517891798598
2023-10-05T09:15:01.723Z,77.29821466313335
2023-10-05T09:30:02.399Z,76.87328544798761
2023-10-05T09:45:02.031Z,76.13070561649027
2023-10-05T10:00:01.661Z,75.46966012469964
2023-10-05T10:15:02.421Z,74.96813922954523
2023-10-05T10:30:02.169Z,74.39454773934028
2023-10-05T10:45:01.834Z,73.8211966509034
2023-10-05T11:00:02.516Z,73.2678037088024
2023-10-05T11:15:02.143Z,72.62426693694312
2023-10-05T11:30:11.109Z,72.13502796526679
2023-10-05T11:45:03.610Z,71.41255359887363
2023-10-05T12:00:01.608Z,71.3411576912926
2023-10-05T12:15:02.846Z,70.8679533445594
2023-10-05T12:30:01.677Z,70.61990439287304
2023-10-05T12:45:02.386Z,70.40999957119764
2023-10-05T13:00:02.051Z,69.67132843297455
2023-10-05T13:15:01.655Z,69.28252112513448
2023-10-05T13:30:02.329Z,68.93086344023678
2023-10-05T13:45:01.935Z,68.08606016208365
2023-10-05T14:00:01.616Z,67.4828497257487
2023-10-05T14:15:02.252Z,67.43134103674524
2023-10-05T14:30:01.931Z,66.97351789967493
2023-10-05T14:45:01.557Z,66.92656471044299
2023-10-05T15:00:02.213Z,67.23100499739222
2023-10-05T15:15:01.872Z,66.65818907734754
2023-10-05T15:30:01.615Z,67.19091374711215
2023-10-05T15:45:02.455Z,67.37282275655112
2023-10-05T16:00:02.122Z,67.40292676892041
2023-10-05T16:15:01.880Z,67.42391205371676
2023-10-05T16:30:01.639Z,67.43855107057048
2023-10-05T16:45:02.303Z,67.46519473322732
2023-10-05T17:00:01.907Z,67.48338165950497
2023-10-05T17:15:02.529Z,67.50449668388512
2023-10-05T17:30:02.185Z,67.81029791803459
2023-10-05T17:45:01.873Z,68.01952008080218
2023-10-05T18:00:02.457Z,68.17546230610778
2023-10-05T18:15:02.088Z,68.53027424401392
2023-10-05T18:30:01.808Z,68.68444823964835
2023-10-05T18:45:02.418Z,68.8503901530227
2023-10-05T19:00:02.137Z,69.2400402929904
2023-10-05T19:15:01.805Z,69.37992855949018
2023-10-05T19:30:02.446Z,69.53110864452216
2023-10-05T19:45:02.036Z,69.82877226046512
2023-10-05T20:00:01.650Z,70.08559302350015
2023-10-05T20:15:02.293Z,70.4364166742808
2023-10-05T20:30:01.938Z,70.25783088978233
2023-10-05T20:45:01.593Z,70.40215441216624
2023-10-05T21:00:02.220Z,70.32142471089304
2023-10-05T21:15:01.869Z,70.40294552844831
2023-10-05T21:30:02.521Z,70.89439723682712
2023-10-05T21:45:02.103Z,70.81162368287666
2023-10-05T22:00:01.680Z,70.9037637193607
2023-10-05T22:15:02.244Z,71.09550111146513
2023-10-05T22:30:01.868Z,71.05653952366575
2023-10-05T22:45:02.511Z,71.04127703378225
2023-10-05T23:00:02.086Z,71.18298395484923
2023-10-05T23:15:01.661Z,71.17163088527597
2023-10-05T23:30:02.281Z,71.5437134394298
2023-10-05T23:45:01.847Z,71.67034973289428
